Zephyr — WDG9976 — position and weather

sailwx.info

Track history (hours):
 
Tides and Currents Weather Stations Pressure Air Temp Water Temp Dewpoint Dewpoint Depression Visibility Wind Speed Wind Dir Waves Ship Positions

Zephyr

Owner: Micjan, Ron, Portland, OR. More information available from US FCC via Universal Licensing System and Coast Guard Vessel Documentation Center.

Last reported at 2018-Jun-17 00:49 UTC. Time now 2018-Jun-19 18:25 UTC.
Position N 50°52' W 132°41'.

Length 25 m; draft 2.5 m.

Type: Neutral ship in war zone. MMSI: 338142000.

Date/timePositionNaut miles runAvg speedWind from/ knotsBaromVisibWave heightAir tempDewpointWater temp
2018-Jun-17 00:49N 50°52' W 132°41'250 7.4
2018-Jun-15 15:16N 49°07' W 126°49'3 9.1
2018-Jun-15 14:58N 49°06' W 126°45'5 9.2
2018-Jun-15 14:28N 49°04' W 126°38'5 9.1
2018-Jun-15 13:58N 49°03' W 126°32'4 9.1
2018-Jun-15 13:29N 49°01' W 126°26'4 9.3
2018-Jun-15 13:00N 48°59' W 126°20'5 9.4
2018-Jun-15 12:30N 48°57' W 126°13'5 9.6
2018-Jun-15 11:59N 48°56' W 126°06'5 9.8
2018-Jun-15 11:30N 48°54' W 125°59'510.1
2018-Jun-15 11:00N 48°52' W 125°52'5 9.8
2018-Jun-15 10:30N 48°50' W 125°46'5 9.7
2018-Jun-15 10:00N 48°48' W 125°39'5 9.6
2018-Jun-15 09:30N 48°46' W 125°32'5 9.9
2018-Jun-15 09:00N 48°45' W 125°25'5 9.9
2018-Jun-15 08:29N 48°43' W 125°18'5 9.9
2018-Jun-15 08:00N 48°41' W 125°11'510.3
2018-Jun-15 07:29N 48°39' W 125°03'510.1
2018-Jun-15 06:59N 48°37' W 124°57'510.0
2018-Jun-15 06:30N 48°35' W 124°50'510.1
2018-Jun-15 06:00N 48°33' W 124°43'510.3
2018-Jun-15 05:30N 48°30' W 124°36'510.4
2018-Jun-15 05:00N 48°28' W 124°29'510.3
2018-Jun-15 04:30N 48°26' W 124°22'510.1
2018-Jun-15 04:00N 48°24' W 124°15'5 9.6
2018-Jun-15 03:30N 48°22' W 124°09'5 9.3
2018-Jun-15 03:00N 48°20' W 124°02'5 9.3
2018-Jun-15 02:28N 48°17' W 123°56'36 2.8
2018-Jun-14 13:48N 48°11' W 123°03'4 9.1
2018-Jun-14 13:21N 48°10' W 122°57'9 6.3
2018-Jun-14 11:58N 48°08' W 122°45'16 0.4
2018-Jun-12 17:57N 47°55' W 122°31'4 9.6
2018-Jun-12 17:30N 47°51' W 122°29'5 9.4
2018-Jun-12 17:00N 47°46' W 122°28'5 9.3
2018-Jun-12 16:30N 47°41' W 122°29'5 9.3
2018-Jun-12 16:00N 47°37' W 122°29'4 7.8
2018-Jun-12 15:30N 47°33' W 122°29'1 1.0
2018-Jun-12 14:59N 47°32' W 122°29'0 0.0
2018-Jun-12 14:29N 47°32' W 122°29'0 0.0
2018-Jun-12 13:59N 47°32' W 122°29'0 0.0
2018-Jun-12 13:29N 47°32' W 122°29'0 0.0
2018-Jun-12 12:59N 47°32' W 122°29'0 0.0
2018-Jun-12 12:29N 47°32' W 122°29'0 0.0
2018-Jun-12 11:50N 47°32' W 122°29'0 0.0
2018-Jun-12 11:29N 47°32' W 122°29'0 0.0
2018-Jun-12 10:59N 47°32' W 122°29'0 0.0
2018-Jun-12 10:29N 47°32' W 122°29'0 0.0
2018-Jun-12 09:59N 47°32' W 122°29'0 0.0
2018-Jun-12 09:29N 47°32' W 122°29'0 0.0
2018-Jun-12 08:59N 47°32' W 122°29'0 0.0
2018-Jun-12 08:29N 47°32' W 122°29'0 0.0
2018-Jun-12 07:59N 47°32' W 122°29'0 0.0
2018-Jun-12 07:29N 47°32' W 122°29'0 0.0
2018-Jun-12 06:59N 47°32' W 122°29'0 0.0
2018-Jun-12 06:29N 47°32' W 122°29'0 0.0
2018-Jun-12 05:59N 47°32' W 122°29'0 0.0
2018-Jun-12 05:29N 47°32' W 122°29'0 0.0
2018-Jun-12 04:59N 47°32' W 122°29'0 0.0
2018-Jun-12 04:29N 47°32' W 122°29'0 0.0
2018-Jun-12 03:59N 47°32' W 122°29'0 0.0
2018-Jun-12 03:29N 47°32' W 122°29'0 0.0
2018-Jun-12 02:59N 47°32' W 122°29'0 0.0
2018-Jun-12 02:29N 47°32' W 122°29'0 0.0
2018-Jun-12 01:59N 47°32' W 122°29'0 0.0
2018-Jun-12 01:29N 47°32' W 122°29'0 0.0
2018-Jun-12 00:59N 47°32' W 122°29'0 0.0
2018-Jun-12 00:29N 47°32' W 122°29'0 0.0
2018-Jun-11 23:59N 47°32' W 122°29'0 0.4
2018-Jun-11 23:31N 47°32' W 122°29'4 8.5
2018-Jun-11 23:01N 47°37' W 122°28'5 9.0
2018-Jun-11 22:30N 47°41' W 122°29'5 9.3
2018-Jun-11 22:01N 47°46' W 122°27'5 9.1
2018-Jun-11 21:30N 47°50' W 122°29'5 9.4
2018-Jun-11 20:59N 47°55' W 122°31'15 6.4
2018-Jun-11 18:34N 48°07' W 122°45'0 0.0
2018-Jun-11 18:21N 48°07' W 122°45'0 0.0
2018-Jun-11 17:29N 48°07' W 122°45'0 0.0
2018-Jun-11 15:24N 48°07' W 122°45'0 0.0
2018-Jun-11 14:48N 48°07' W 122°45'0 0.0
2018-Jun-11 14:20N 48°07' W 122°45'0 0.0
2018-Jun-11 13:57N 48°07' W 122°45'0 0.0
2018-Jun-11 13:24N 48°07' W 122°45'0 0.0
2018-Jun-11 12:52N 48°07' W 122°45'0 0.0
2018-Jun-11 12:30N 48°07' W 122°45'0 0.0
2018-Jun-11 11:59N 48°07' W 122°45'0 0.0
2018-Jun-11 11:30N 48°07' W 122°45'0 0.0
2018-Jun-11 11:00N 48°07' W 122°45'0 0.0
2018-Jun-11 10:29N 48°07' W 122°45'0 0.0
2018-Jun-11 10:01N 48°07' W 122°45'0 0.0
2018-Jun-11 09:29N 48°07' W 122°45'0 0.0
2018-Jun-11 09:01N 48°07' W 122°45'0 0.0
2018-Jun-11 08:31N 48°07' W 122°45'0 0.0
2018-Jun-11 08:01N 48°07' W 122°45'0 0.0
2018-Jun-11 07:30N 48°07' W 122°45'0 0.0
2018-Jun-11 07:00N 48°07' W 122°45'0 0.0
2018-Jun-11 06:30N 48°07' W 122°45'0 0.0
2018-Jun-11 06:00N 48°07' W 122°45'0 0.0
2018-Jun-11 05:30N 48°07' W 122°45'0 0.0
2018-Jun-11 05:00N 48°07' W 122°45'0 0.0
2018-Jun-11 04:29N 48°07' W 122°45'0 0.0
2018-Jun-11 04:00N 48°07' W 122°45'0 0.0
2018-Jun-11 03:27N 48°07' W 122°45'0 0.0
2018-Jun-11 03:01N 48°07' W 122°45'0 0.0
2018-Jun-11 02:29N 48°07' W 122°45'0 0.0
2018-Jun-11 01:59N 48°07' W 122°45'0 0.0
2018-Jun-11 01:27N 48°07' W 122°45'0 0.0
2018-Jun-11 01:00N 48°07' W 122°45'0 0.0
2018-Jun-11 00:27N 48°07' W 122°45'0 0.0
2018-Jun-11 00:00N 48°07' W 122°45'0 0.0
2018-Jun-10 23:26N 48°07' W 122°45'0 0.0
2018-Jun-10 23:01N 48°07' W 122°45'0 0.0
2018-Jun-10 21:38N 48°07' W 122°45'0 0.0
2018-Jun-10 21:25N 48°07' W 122°45'0 0.0
2018-Jun-10 21:01N 48°07' W 122°45'0 0.0
2018-Jun-10 19:39N 48°07' W 122°45'0 0.0
2018-Jun-10 19:28N 48°07' W 122°45'0 0.0
2018-Jun-10 19:01N 48°07' W 122°45'0 0.0
2018-Jun-10 18:31N 48°07' W 122°45'0 0.0
2018-Jun-10 18:01N 48°07' W 122°45'0 0.0
2018-Jun-10 17:30N 48°07' W 122°45'0 0.0
2018-Jun-10 16:56N 48°07' W 122°45'0 0.0
2018-Jun-10 16:29N 48°07' W 122°45'0 0.0
2018-Jun-10 15:58N 48°07' W 122°45'0 0.0
2018-Jun-10 15:17N 48°07' W 122°45'0 0.0
2018-Jun-10 13:57N 48°07' W 122°45'0 0.0
2018-Jun-10 13:28N 48°07' W 122°45'0 0.0
2018-Jun-10 12:55N 48°07' W 122°45'0 0.0
2018-Jun-10 12:28N 48°07' W 122°45'0 0.0
2018-Jun-10 12:00N 48°07' W 122°45'0 0.0
2018-Jun-10 11:31N 48°07' W 122°45'0 0.0
2018-Jun-10 10:58N 48°07' W 122°45'0 0.0
2018-Jun-10 10:30N 48°07' W 122°45'0 0.0
2018-Jun-10 09:58N 48°07' W 122°45'0 0.0
2018-Jun-10 09:22N 48°07' W 122°45'0 0.0
2018-Jun-10 09:00N 48°07' W 122°45'0 0.0
2018-Jun-10 08:30N 48°07' W 122°45'0 0.0
2018-Jun-10 07:57N 48°07' W 122°45'0 0.0
2018-Jun-10 07:31N 48°07' W 122°45'0 0.0
2018-Jun-10 06:56N 48°07' W 122°45'0 0.0
2018-Jun-10 06:30N 48°07' W 122°45'0 0.0
2018-Jun-10 06:00N 48°07' W 122°45'0 0.0
2018-Jun-10 05:31N 48°07' W 122°45'0 0.0
2018-Jun-10 05:01N 48°07' W 122°45'0 0.0
2018-Jun-10 04:30N 48°07' W 122°45'0 0.0
2018-Jun-10 04:01N 48°07' W 122°45'0 0.0
2018-Jun-10 03:28N 48°07' W 122°45'0 0.0
2018-Jun-10 03:01N 48°07' W 122°45'0 0.0
2018-Jun-10 02:29N 48°07' W 122°45'0 0.0
2018-Jun-10 02:00N 48°07' W 122°45'0 0.0
2018-Jun-10 01:30N 48°07' W 122°45'0 0.0
2018-Jun-10 01:00N 48°07' W 122°45'0 0.0
2018-Jun-10 00:30N 48°07' W 122°45'0 0.0
2018-Jun-10 00:00N 48°07' W 122°45'0 0.0
2018-Jun-09 23:29N 48°07' W 122°45'0 0.0
2018-Jun-09 23:00N 48°07' W 122°45'0 0.0
2018-Jun-09 22:29N 48°07' W 122°45'0 0.0
2018-Jun-09 22:00N 48°07' W 122°45'0 0.0
2018-Jun-09 21:30N 48°07' W 122°45'0 0.0
2018-Jun-09 21:00N 48°07' W 122°45'0 0.0
2018-Jun-09 20:30N 48°07' W 122°45'0 0.0
2018-Jun-09 19:51N 48°07' W 122°45'0 0.0
2018-Jun-09 19:30N 48°07' W 122°45'0 0.0
2018-Jun-09 18:59N 48°07' W 122°45'0 0.0
2018-Jun-09 18:30N 48°07' W 122°45'0 0.0
2018-Jun-09 18:00N 48°07' W 122°45'0 0.0
2018-Jun-09 17:30N 48°07' W 122°45'0 0.0
2018-Jun-09 16:57N 48°07' W 122°45'0 0.0
2018-Jun-09 16:27N 48°07' W 122°45'0 0.0
2018-Jun-09 15:59N 48°07' W 122°45'0 0.0
2018-Jun-09 15:01N 48°07' W 122°45'0 0.0
2018-Jun-09 14:30N 48°07' W 122°45'0 0.0
2018-Jun-09 14:00N 48°07' W 122°45'0 0.0
2018-Jun-09 13:30N 48°07' W 122°45'0 0.0
2018-Jun-09 12:56N 48°07' W 122°45'0 0.0
2018-Jun-09 12:29N 48°07' W 122°45'0 0.0
2018-Jun-09 12:01N 48°07' W 122°45'0 0.0
2018-Jun-09 11:28N 48°07' W 122°45'0 0.0
2018-Jun-09 11:00N 48°07' W 122°45'0 0.0
2018-Jun-09 10:30N 48°07' W 122°45'0 0.0
2018-Jun-09 10:01N 48°07' W 122°45'0 0.0
2018-Jun-09 09:30N 48°07' W 122°45'0 0.0
2018-Jun-09 08:58N 48°07' W 122°45'0 0.0
2018-Jun-09 08:30N 48°07' W 122°45'0 0.0
2018-Jun-09 08:01N 48°07' W 122°45'0 0.0
2018-Jun-09 07:29N 48°07' W 122°45'0 0.0
2018-Jun-09 07:00N 48°07' W 122°45'0 0.0
2018-Jun-09 06:30N 48°07' W 122°45'0 0.0
2018-Jun-09 05:59N 48°07' W 122°45'0 0.0
2018-Jun-09 05:31N 48°07' W 122°45'0 0.0
2018-Jun-09 05:01N 48°07' W 122°45'0 0.0
2018-Jun-09 04:30N 48°07' W 122°45'0 0.0
2018-Jun-09 04:00N 48°07' W 122°45'0 0.0
2018-Jun-09 03:30N 48°07' W 122°45'0 0.0
2018-Jun-09 02:59N 48°07' W 122°45'0 0.0
2018-Jun-09 02:30N 48°07' W 122°45'0 0.0
2018-Jun-09 02:01N 48°07' W 122°45'16 3.2
2018-Jun-08 21:03N 47°52' W 122°37'110.0
2018-Jun-08 20:58N 47°51' W 122°37'510.0
2018-Jun-08 20:29N 47°48' W 122°42'510.0
2018-Jun-08 20:00N 47°44' W 122°45'4 8.5
2018-Jun-08 19:30N 47°41' W 122°50'3 6.6
2018-Jun-08 19:00N 47°40' W 122°55'0 0.4
2018-Jun-08 18:28N 47°40' W 122°55'0 0.0
2018-Jun-08 17:16N 47°40' W 122°55'0 0.0
2018-Jun-08 16:58N 47°40' W 122°55'0 0.0
2018-Jun-08 15:34N 47°40' W 122°55'0 0.0
2018-Jun-08 15:28N 47°40' W 122°55'0 0.0
2018-Jun-08 14:28N 47°40' W 122°55'0 0.0
2018-Jun-08 13:58N 47°40' W 122°55'0 0.0
2018-Jun-08 10:52N 47°40' W 122°55'0 0.0
2018-Jun-08 10:28N 47°40' W 122°55'0 0.0
2018-Jun-08 09:58N 47°40' W 122°55'0 0.0
2018-Jun-08 09:28N 47°40' W 122°55'0 0.0
2018-Jun-08 08:58N 47°40' W 122°55'0 0.0
2018-Jun-08 08:28N 47°40' W 122°55'0 0.0
2018-Jun-08 07:58N 47°40' W 122°55'0 0.0
2018-Jun-08 07:22N 47°40' W 122°55'0 0.0
2018-Jun-08 06:58N 47°40' W 122°55'0 0.0
2018-Jun-08 06:28N 47°40' W 122°55'0 0.0
2018-Jun-08 05:52N 47°40' W 122°55'0 0.0
2018-Jun-08 05:28N 47°40' W 122°55'0 0.0
2018-Jun-08 04:58N 47°40' W 122°55'0 0.0
2018-Jun-08 04:28N 47°40' W 122°55'0 0.0
2018-Jun-08 03:58N 47°40' W 122°55'0 0.0
2018-Jun-08 03:22N 47°40' W 122°55'0 0.0
2018-Jun-08 02:58N 47°40' W 122°55'0 0.0
2018-Jun-07 14:52N 47°40' W 122°55'0 0.0
2018-Jun-07 08:58N 47°40' W 122°55'0 0.0
2018-Jun-07 08:22N 47°40' W 122°55'  
Track history (hours):
 
Tides and Currents Weather Stations Pressure Air Temp Water Temp Dewpoint Dewpoint Depression Visibility Wind Speed Wind Dir Waves Ship Positions

Zephyr

Owner: Micjan, Ron, Portland, OR. More information available from US FCC via Universal Licensing System and Coast Guard Vessel Documentation Center.

Last reported at 2018-Jun-17 00:49 UTC. Time now 2018-Jun-19 18:25 UTC.
Position N 50°52' W 132°41'.

Length 25 m; draft 2.5 m.

Type: Neutral ship in war zone. MMSI: 338142000.

Date/timePositionNaut miles runAvg speedWind from/ knotsBaromVisibWave heightAir tempDewpointWater temp
2018-Jun-17 00:49N 50°52' W 132°41'250 7.4
2018-Jun-15 15:16N 49°07' W 126°49'3 9.1
2018-Jun-15 14:58N 49°06' W 126°45'5 9.2
2018-Jun-15 14:28N 49°04' W 126°38'5 9.1
2018-Jun-15 13:58N 49°03' W 126°32'4 9.1
2018-Jun-15 13:29N 49°01' W 126°26'4 9.3
2018-Jun-15 13:00N 48°59' W 126°20'5 9.4
2018-Jun-15 12:30N 48°57' W 126°13'5 9.6
2018-Jun-15 11:59N 48°56' W 126°06'5 9.8
2018-Jun-15 11:30N 48°54' W 125°59'510.1
2018-Jun-15 11:00N 48°52' W 125°52'5 9.8
2018-Jun-15 10:30N 48°50' W 125°46'5 9.7
2018-Jun-15 10:00N 48°48' W 125°39'5 9.6
2018-Jun-15 09:30N 48°46' W 125°32'5 9.9
2018-Jun-15 09:00N 48°45' W 125°25'5 9.9
2018-Jun-15 08:29N 48°43' W 125°18'5 9.9
2018-Jun-15 08:00N 48°41' W 125°11'510.3
2018-Jun-15 07:29N 48°39' W 125°03'510.1
2018-Jun-15 06:59N 48°37' W 124°57'510.0
2018-Jun-15 06:30N 48°35' W 124°50'510.1
2018-Jun-15 06:00N 48°33' W 124°43'510.3
2018-Jun-15 05:30N 48°30' W 124°36'510.4
2018-Jun-15 05:00N 48°28' W 124°29'510.3
2018-Jun-15 04:30N 48°26' W 124°22'510.1
2018-Jun-15 04:00N 48°24' W 124°15'5 9.6
2018-Jun-15 03:30N 48°22' W 124°09'5 9.3
2018-Jun-15 03:00N 48°20' W 124°02'5 9.3
2018-Jun-15 02:28N 48°17' W 123°56'36 2.8
2018-Jun-14 13:48N 48°11' W 123°03'4 9.1
2018-Jun-14 13:21N 48°10' W 122°57'9 6.3
2018-Jun-14 11:58N 48°08' W 122°45'16 0.4
2018-Jun-12 17:57N 47°55' W 122°31'4 9.6
2018-Jun-12 17:30N 47°51' W 122°29'5 9.4
2018-Jun-12 17:00N 47°46' W 122°28'5 9.3
2018-Jun-12 16:30N 47°41' W 122°29'5 9.3
2018-Jun-12 16:00N 47°37' W 122°29'4 7.8
2018-Jun-12 15:30N 47°33' W 122°29'1 1.0
2018-Jun-12 14:59N 47°32' W 122°29'0 0.0
2018-Jun-12 14:29N 47°32' W 122°29'0 0.0
2018-Jun-12 13:59N 47°32' W 122°29'0 0.0
2018-Jun-12 13:29N 47°32' W 122°29'0 0.0
2018-Jun-12 12:59N 47°32' W 122°29'0 0.0
2018-Jun-12 12:29N 47°32' W 122°29'0 0.0
2018-Jun-12 11:50N 47°32' W 122°29'0 0.0
2018-Jun-12 11:29N 47°32' W 122°29'0 0.0
2018-Jun-12 10:59N 47°32' W 122°29'0 0.0
2018-Jun-12 10:29N 47°32' W 122°29'0 0.0
2018-Jun-12 09:59N 47°32' W 122°29'0 0.0
2018-Jun-12 09:29N 47°32' W 122°29'0 0.0
2018-Jun-12 08:59N 47°32' W 122°29'0 0.0
2018-Jun-12 08:29N 47°32' W 122°29'0 0.0
2018-Jun-12 07:59N 47°32' W 122°29'0 0.0
2018-Jun-12 07:29N 47°32' W 122°29'0 0.0
2018-Jun-12 06:59N 47°32' W 122°29'0 0.0
2018-Jun-12 06:29N 47°32' W 122°29'0 0.0
2018-Jun-12 05:59N 47°32' W 122°29'0 0.0
2018-Jun-12 05:29N 47°32' W 122°29'0 0.0
2018-Jun-12 04:59N 47°32' W 122°29'0 0.0
2018-Jun-12 04:29N 47°32' W 122°29'0 0.0
2018-Jun-12 03:59N 47°32' W 122°29'0 0.0
2018-Jun-12 03:29N 47°32' W 122°29'0 0.0
2018-Jun-12 02:59N 47°32' W 122°29'0 0.0
2018-Jun-12 02:29N 47°32' W 122°29'0 0.0
2018-Jun-12 01:59N 47°32' W 122°29'0 0.0
2018-Jun-12 01:29N 47°32' W 122°29'0 0.0
2018-Jun-12 00:59N 47°32' W 122°29'0 0.0
2018-Jun-12 00:29N 47°32' W 122°29'0 0.0
2018-Jun-11 23:59N 47°32' W 122°29'0 0.4
2018-Jun-11 23:31N 47°32' W 122°29'4 8.5
2018-Jun-11 23:01N 47°37' W 122°28'5 9.0
2018-Jun-11 22:30N 47°41' W 122°29'5 9.3
2018-Jun-11 22:01N 47°46' W 122°27'5 9.1
2018-Jun-11 21:30N 47°50' W 122°29'5 9.4
2018-Jun-11 20:59N 47°55' W 122°31'15 6.4
2018-Jun-11 18:34N 48°07' W 122°45'0 0.0
2018-Jun-11 18:21N 48°07' W 122°45'0 0.0
2018-Jun-11 17:29N 48°07' W 122°45'0 0.0
2018-Jun-11 15:24N 48°07' W 122°45'0 0.0
2018-Jun-11 14:48N 48°07' W 122°45'0 0.0
2018-Jun-11 14:20N 48°07' W 122°45'0 0.0
2018-Jun-11 13:57N 48°07' W 122°45'0 0.0
2018-Jun-11 13:24N 48°07' W 122°45'0 0.0
2018-Jun-11 12:52N 48°07' W 122°45'0 0.0
2018-Jun-11 12:30N 48°07' W 122°45'0 0.0
2018-Jun-11 11:59N 48°07' W 122°45'0 0.0
2018-Jun-11 11:30N 48°07' W 122°45'0 0.0
2018-Jun-11 11:00N 48°07' W 122°45'0 0.0
2018-Jun-11 10:29N 48°07' W 122°45'0 0.0
2018-Jun-11 10:01N 48°07' W 122°45'0 0.0
2018-Jun-11 09:29N 48°07' W 122°45'0 0.0
2018-Jun-11 09:01N 48°07' W 122°45'0 0.0
2018-Jun-11 08:31N 48°07' W 122°45'0 0.0
2018-Jun-11 08:01N 48°07' W 122°45'0 0.0
2018-Jun-11 07:30N 48°07' W 122°45'0 0.0
2018-Jun-11 07:00N 48°07' W 122°45'0 0.0
2018-Jun-11 06:30N 48°07' W 122°45'0 0.0
2018-Jun-11 06:00N 48°07' W 122°45'0 0.0
2018-Jun-11 05:30N 48°07' W 122°45'0 0.0
2018-Jun-11 05:00N 48°07' W 122°45'0 0.0
2018-Jun-11 04:29N 48°07' W 122°45'0 0.0
2018-Jun-11 04:00N 48°07' W 122°45'0 0.0
2018-Jun-11 03:27N 48°07' W 122°45'0 0.0
2018-Jun-11 03:01N 48°07' W 122°45'0 0.0
2018-Jun-11 02:29N 48°07' W 122°45'0 0.0
2018-Jun-11 01:59N 48°07' W 122°45'0 0.0
2018-Jun-11 01:27N 48°07' W 122°45'0 0.0
2018-Jun-11 01:00N 48°07' W 122°45'0 0.0
2018-Jun-11 00:27N 48°07' W 122°45'0 0.0
2018-Jun-11 00:00N 48°07' W 122°45'0 0.0
2018-Jun-10 23:26N 48°07' W 122°45'0 0.0
2018-Jun-10 23:01N 48°07' W 122°45'0 0.0
2018-Jun-10 21:38N 48°07' W 122°45'0 0.0
2018-Jun-10 21:25N 48°07' W 122°45'0 0.0
2018-Jun-10 21:01N 48°07' W 122°45'0 0.0
2018-Jun-10 19:39N 48°07' W 122°45'0 0.0
2018-Jun-10 19:28N 48°07' W 122°45'0 0.0
2018-Jun-10 19:01N 48°07' W 122°45'0 0.0
2018-Jun-10 18:31N 48°07' W 122°45'0 0.0
2018-Jun-10 18:01N 48°07' W 122°45'0 0.0
2018-Jun-10 17:30N 48°07' W 122°45'0 0.0
2018-Jun-10 16:56N 48°07' W 122°45'0 0.0
2018-Jun-10 16:29N 48°07' W 122°45'0 0.0
2018-Jun-10 15:58N 48°07' W 122°45'0 0.0
2018-Jun-10 15:17N 48°07' W 122°45'0 0.0
2018-Jun-10 13:57N 48°07' W 122°45'0 0.0
2018-Jun-10 13:28N 48°07' W 122°45'0 0.0
2018-Jun-10 12:55N 48°07' W 122°45'0 0.0
2018-Jun-10 12:28N 48°07' W 122°45'0 0.0
2018-Jun-10 12:00N 48°07' W 122°45'0 0.0
2018-Jun-10 11:31N 48°07' W 122°45'0 0.0
2018-Jun-10 10:58N 48°07' W 122°45'0 0.0
2018-Jun-10 10:30N 48°07' W 122°45'0 0.0
2018-Jun-10 09:58N 48°07' W 122°45'0 0.0
2018-Jun-10 09:22N 48°07' W 122°45'0 0.0
2018-Jun-10 09:00N 48°07' W 122°45'0 0.0
2018-Jun-10 08:30N 48°07' W 122°45'0 0.0
2018-Jun-10 07:57N 48°07' W 122°45'0 0.0
2018-Jun-10 07:31N 48°07' W 122°45'0 0.0
2018-Jun-10 06:56N 48°07' W 122°45'0 0.0
2018-Jun-10 06:30N 48°07' W 122°45'0 0.0
2018-Jun-10 06:00N 48°07' W 122°45'0 0.0
2018-Jun-10 05:31N 48°07' W 122°45'0 0.0
2018-Jun-10 05:01N 48°07' W 122°45'0 0.0
2018-Jun-10 04:30N 48°07' W 122°45'0 0.0
2018-Jun-10 04:01N 48°07' W 122°45'0 0.0
2018-Jun-10 03:28N 48°07' W 122°45'0 0.0
2018-Jun-10 03:01N 48°07' W 122°45'0 0.0
2018-Jun-10 02:29N 48°07' W 122°45'0 0.0
2018-Jun-10 02:00N 48°07' W 122°45'0 0.0
2018-Jun-10 01:30N 48°07' W 122°45'0 0.0
2018-Jun-10 01:00N 48°07' W 122°45'0 0.0
2018-Jun-10 00:30N 48°07' W 122°45'0 0.0
2018-Jun-10 00:00N 48°07' W 122°45'0 0.0
2018-Jun-09 23:29N 48°07' W 122°45'0 0.0
2018-Jun-09 23:00N 48°07' W 122°45'0 0.0
2018-Jun-09 22:29N 48°07' W 122°45'0 0.0
2018-Jun-09 22:00N 48°07' W 122°45'0 0.0
2018-Jun-09 21:30N 48°07' W 122°45'0 0.0
2018-Jun-09 21:00N 48°07' W 122°45'0 0.0
2018-Jun-09 20:30N 48°07' W 122°45'0 0.0
2018-Jun-09 19:51N 48°07' W 122°45'0 0.0
2018-Jun-09 19:30N 48°07' W 122°45'0 0.0
2018-Jun-09 18:59N 48°07' W 122°45'0 0.0
2018-Jun-09 18:30N 48°07' W 122°45'0 0.0
2018-Jun-09 18:00N 48°07' W 122°45'0 0.0
2018-Jun-09 17:30N 48°07' W 122°45'0 0.0
2018-Jun-09 16:57N 48°07' W 122°45'0 0.0
2018-Jun-09 16:27N 48°07' W 122°45'0 0.0
2018-Jun-09 15:59N 48°07' W 122°45'0 0.0
2018-Jun-09 15:01N 48°07' W 122°45'0 0.0
2018-Jun-09 14:30N 48°07' W 122°45'0 0.0
2018-Jun-09 14:00N 48°07' W 122°45'0 0.0
2018-Jun-09 13:30N 48°07' W 122°45'0 0.0
2018-Jun-09 12:56N 48°07' W 122°45'0 0.0
2018-Jun-09 12:29N 48°07' W 122°45'0 0.0
2018-Jun-09 12:01N 48°07' W 122°45'0 0.0
2018-Jun-09 11:28N 48°07' W 122°45'0 0.0
2018-Jun-09 11:00N 48°07' W 122°45'0 0.0
2018-Jun-09 10:30N 48°07' W 122°45'0 0.0
2018-Jun-09 10:01N 48°07' W 122°45'0 0.0
2018-Jun-09 09:30N 48°07' W 122°45'0 0.0
2018-Jun-09 08:58N 48°07' W 122°45'0 0.0
2018-Jun-09 08:30N 48°07' W 122°45'0 0.0
2018-Jun-09 08:01N 48°07' W 122°45'0 0.0
2018-Jun-09 07:29N 48°07' W 122°45'0 0.0
2018-Jun-09 07:00N 48°07' W 122°45'0 0.0
2018-Jun-09 06:30N 48°07' W 122°45'0 0.0
2018-Jun-09 05:59N 48°07' W 122°45'0 0.0
2018-Jun-09 05:31N 48°07' W 122°45'0 0.0
2018-Jun-09 05:01N 48°07' W 122°45'0 0.0
2018-Jun-09 04:30N 48°07' W 122°45'0 0.0
2018-Jun-09 04:00N 48°07' W 122°45'0 0.0
2018-Jun-09 03:30N 48°07' W 122°45'0 0.0
2018-Jun-09 02:59N 48°07' W 122°45'0 0.0
2018-Jun-09 02:30N 48°07' W 122°45'0 0.0
2018-Jun-09 02:01N 48°07' W 122°45'16 3.2
2018-Jun-08 21:03N 47°52' W 122°37'110.0
2018-Jun-08 20:58N 47°51' W 122°37'510.0
2018-Jun-08 20:29N 47°48' W 122°42'510.0
2018-Jun-08 20:00N 47°44' W 122°45'4 8.5
2018-Jun-08 19:30N 47°41' W 122°50'3 6.6
2018-Jun-08 19:00N 47°40' W 122°55'0 0.4
2018-Jun-08 18:28N 47°40' W 122°55'0 0.0
2018-Jun-08 17:16N 47°40' W 122°55'0 0.0
2018-Jun-08 16:58N 47°40' W 122°55'0 0.0
2018-Jun-08 15:34N 47°40' W 122°55'0 0.0
2018-Jun-08 15:28N 47°40' W 122°55'0 0.0
2018-Jun-08 14:28N 47°40' W 122°55'0 0.0
2018-Jun-08 13:58N 47°40' W 122°55'0 0.0
2018-Jun-08 10:52N 47°40' W 122°55'0 0.0
2018-Jun-08 10:28N 47°40' W 122°55'0 0.0
2018-Jun-08 09:58N 47°40' W 122°55'0 0.0
2018-Jun-08 09:28N 47°40' W 122°55'0 0.0
2018-Jun-08 08:58N 47°40' W 122°55'0 0.0
2018-Jun-08 08:28N 47°40' W 122°55'0 0.0
2018-Jun-08 07:58N 47°40' W 122°55'0 0.0
2018-Jun-08 07:22N 47°40' W 122°55'0 0.0
2018-Jun-08 06:58N 47°40' W 122°55'0 0.0
2018-Jun-08 06:28N 47°40' W 122°55'0 0.0
2018-Jun-08 05:52N 47°40' W 122°55'0 0.0
2018-Jun-08 05:28N 47°40' W 122°55'0 0.0
2018-Jun-08 04:58N 47°40' W 122°55'0 0.0
2018-Jun-08 04:28N 47°40' W 122°55'0 0.0
2018-Jun-08 03:58N 47°40' W 122°55'0 0.0
2018-Jun-08 03:22N 47°40' W 122°55'0 0.0
2018-Jun-08 02:58N 47°40' W 122°55'0 0.0
2018-Jun-07 14:52N 47°40' W 122°55'0 0.0
2018-Jun-07 08:58N 47°40' W 122°55'0 0.0
2018-Jun-07 08:22N 47°40' W 122°55'  

Dump ship's entire track history